Time;durP1;ratioP1;P1;durP2;ratioP2;P2;SDS_P1;SDS_P2;PMS_P1;PMS_P2;Temp;Humidity;BMP_temperature;BMP_pressure;BME280_temperature;BME280_humidity;BME280_pressure;Samples;Min_cycle;Max_cycle;Signal;HPM_P1;HPM_P2
2021/03/27 00:02:01;;;;;;;2.30;1.98;;;13.80;71.30;;;;;;4943056;28;20027;-80
2021/03/27 00:05:00;;;;;;;1.98;1.80;;;13.70;71.30;;;;;;4969348;28;20123;-80
2021/03/27 00:07:49;;;;;;;1.80;1.70;;;13.60;71.40;;;;;;4958659;28;20039;-80
2021/03/27 00:10:28;;;;;;;2.20;2.00;;;13.60;71.30;;;;;;4972366;28;20031;-80
2021/03/27 00:12:58;;;;;;;2.70;2.13;;;13.60;71.40;;;;;;4978562;28;20395;-79
2021/03/27 00:15:33;;;;;;;2.10;1.90;;;13.50;71.40;;;;;;4960218;28;20038;-80
2021/03/27 00:18:11;;;;;;;2.10;1.90;;;13.50;71.40;;;;;;4962498;28;20460;-80
2021/03/27 00:21:06;;;;;;;1.85;1.75;;;13.50;71.50;;;;;;4977937;28;20022;-81
2021/03/27 00:23:41;;;;;;;1.60;1.50;;;13.40;71.40;;;;;;4949429;28;20115;-80
2021/03/27 00:26:19;;;;;;;2.28;1.90;;;13.40;71.40;;;;;;4973925;28;20122;-81
2021/03/27 00:28:55;;;;;;;1.98;1.70;;;13.30;71.40;;;;;;4975258;28;20030;-80
2021/03/27 00:31:32;;;;;;;1.77;1.67;;;13.30;71.40;;;;;;4976824;28;20023;-80
2021/03/27 00:34:06;;;;;;;1.92;1.70;;;13.20;71.40;;;;;;4944059;28;20535;-80
2021/03/27 00:36:44;;;;;;;1.95;1.73;;;13.20;71.40;;;;;;4957063;28;20045;-80
2021/03/27 00:39:25;;;;;;;1.70;1.60;;;13.20;71.50;;;;;;4978882;28;20059;-81
2021/03/27 00:42:07;;;;;;;1.70;1.60;;;13.10;71.50;;;;;;4964267;28;20361;-80
2021/03/27 00:44:39;;;;;;;1.95;1.50;;;13.10;71.50;;;;;;4979513;28;20027;-81
2021/03/27 00:47:10;;;;;;;1.50;1.40;;;13.10;71.50;;;;;;4947659;28;20491;-81
2021/03/27 00:49:42;;;;;;;1.50;1.40;;;13.00;71.50;;;;;;4967339;28;20106;-81
2021/03/27 00:52:12;;;;;;;1.30;1.20;;;13.00;71.50;;;;;;4955706;28;20491;-81
2021/03/27 00:54:46;;;;;;;1.40;1.25;;;13.00;71.60;;;;;;4943509;28;20026;-80
2021/03/27 00:57:25;;;;;;;1.20;1.10;;;12.90;71.60;;;;;;4962415;28;20538;-81
2021/03/27 01:00:00;;;;;;;1.33;1.23;;;12.90;71.60;;;;;;4944267;28;20058;-81
2021/03/27 01:02:52;;;;;;;1.27;1.23;;;12.90;71.70;;;;;;4973286;28;20034;-81
2021/03/27 01:05:37;;;;;;;1.42;1.17;;;12.80;71.50;;;;;;4966359;28;20038;-80
2021/03/27 01:08:32;;;;;;;1.48;1.10;;;12.80;71.60;;;;;;4966369;28;20039;-81
2021/03/27 01:11:42;;;;;;;1.20;1.10;;;12.70;71.60;;;;;;4917043;29;20077;-81
2021/03/27 01:14:23;;;;;;;1.20;1.10;;;12.70;71.70;;;;;;4966728;28;20050;-81
2021/03/27 01:16:53;;;;;;;1.02;1.02;;;12.60;71.80;;;;;;4955610;28;20035;-81
2021/03/27 01:19:41;;;;;;;1.10;1.10;;;12.60;71.70;;;;;;4957149;28;20027;-81
2021/03/27 01:22:10;;;;;;;1.30;1.20;;;12.60;71.80;;;;;;4980660;28;20049;-82
2021/03/27 01:24:37;;;;;;;1.30;1.20;;;12.50;71.80;;;;;;4979167;28;20027;-80
2021/03/27 01:27:05;;;;;;;1.42;1.20;;;12.50;71.80;;;;;;4970327;28;20112;-81
2021/03/27 01:29:38;;;;;;;1.40;1.30;;;12.50;71.90;;;;;;4963985;28;20472;-81
2021/03/27 01:32:30;;;;;;;1.50;1.40;;;12.40;71.80;;;;;;4940547;28;20033;-81
2021/03/27 01:35:08;;;;;;;2.78;1.50;;;12.40;71.90;;;;;;4961081;28;20391;-80
2021/03/27 01:38:03;;;;;;;1.30;1.20;;;12.40;71.80;;;;;;4972711;28;20119;-81
2021/03/27 01:41:09;;;;;;;1.25;1.20;;;12.40;72.00;;;;;;4948461;28;20026;-80
2021/03/27 01:43:53;;;;;;;1.20;1.10;;;12.30;71.90;;;;;;4930699;28;20043;-81
2021/03/27 01:46:32;;;;;;;1.83;1.45;;;12.30;71.90;;;;;;4962867;28;20122;-81
2021/03/27 01:49:17;;;;;;;2.60;1.80;;;12.20;71.90;;;;;;4970389;28;20440;-81
2021/03/27 01:51:46;;;;;;;;;;;12.20;72.00;;;;;;4941008;28;20031;-80
2021/03/27 01:54:19;;;;;;;1.45;1.35;;;12.20;71.90;;;;;;4959253;28;20361;-81
2021/03/27 01:56:51;;;;;;;1.67;1.58;;;12.10;71.80;;;;;;4957474;28;20038;-80
2021/03/27 01:59:37;;;;;;;1.55;1.45;;;12.10;72.00;;;;;;4940336;28;20030;-80
2021/03/27 02:02:09;;;;;;;1.63;1.52;;;12.10;72.10;;;;;;4960045;28;20154;-80
2021/03/27 02:04:44;;;;;;;2.72;1.90;;;12.00;72.00;;;;;;4971617;28;20027;-80
2021/03/27 02:07:34;;;;;;;2.53;2.08;;;12.00;72.10;;;;;;4957398;28;20475;-81
2021/03/27 02:10:08;;;;;;;2.30;2.08;;;12.00;72.10;;;;;;4957197;28;20027;-80
2021/03/27 02:13:13;;;;;;;3.33;2.47;;;12.00;72.10;;;;;;4956078;28;20038;-80
2021/03/27 02:15:53;;;;;;;3.00;2.35;;;11.90;72.20;;;;;;4870223;29;20313;-80
2021/03/27 02:18:42;;;;;;;3.30;2.60;;;11.90;72.00;;;;;;4886915;29;20107;-79
2021/03/27 02:21:26;;;;;;;4.15;2.95;;;11.90;72.20;;;;;;4929507;28;20071;-80
2021/03/27 02:24:03;;;;;;;3.97;2.95;;;11.90;72.10;;;;;;4956666;28;20039;-80
2021/03/27 02:26:53;;;;;;;3.70;2.78;;;11.80;72.10;;;;;;4941139;28;20125;-79
2021/03/27 02:29:57;;;;;;;3.60;2.63;;;11.80;72.10;;;;;;4957075;28;20030;-79
2021/03/27 02:32:31;;;;;;;3.47;2.78;;;11.80;72.30;;;;;;4939778;28;20026;-79
2021/03/27 02:35:34;;;;;;;3.40;2.70;;;11.70;72.10;;;;;;4959203;28;20086;-79
2021/03/27 02:38:23;;;;;;;3.65;2.70;;;11.70;72.20;;;;;;4968678;28;20438;-80
2021/03/27 02:41:16;;;;;;;3.28;2.67;;;11.70;72.20;;;;;;4961606;28;20018;-79
2021/03/27 02:44:18;;;;;;;4.30;3.10;;;11.70;72.20;;;;;;4960955;28;20035;-79
2021/03/27 02:46:46;;;;;;;4.82;3.00;;;11.70;72.30;;;;;;4972508;28;20050;-79
2021/03/27 02:49:27;;;;;;;5.07;3.22;;;11.60;72.20;;;;;;4948854;28;20030;-80
2021/03/27 02:52:12;;;;;;;4.07;3.03;;;11.60;72.30;;;;;;4963880;28;20035;-79
2021/03/27 02:54:48;;;;;;;5.18;3.25;;;11.50;72.30;;;;;;4959760;28;20081;-80
2021/03/27 02:57:19;;;;;;;3.85;2.97;;;11.60;72.30;;;;;;4962557;28;20138;-79
2021/03/27 02:59:55;;;;;;;4.22;3.10;;;11.60;72.30;;;;;;4959653;28;20085;-79
2021/03/27 03:02:42;;;;;;;4.38;3.08;;;11.50;72.20;;;;;;4958343;28;20486;-79
2021/03/27 03:05:31;;;;;;;4.03;3.10;;;11.50;72.60;;;;;;4953728;28;20058;-79
2021/03/27 03:08:07;;;;;;;4.25;3.00;;;11.50;72.30;;;;;;4967279;28;20046;-80
2021/03/27 03:10:35;;;;;;;3.85;3.20;;;11.50;72.30;;;;;;4985478;28;20031;-80
2021/03/27 03:13:18;;;;;;;4.22;3.17;;;11.40;72.30;;;;;;4939937;28;20349;-79
2021/03/27 03:16:15;;;;;;;4.63;2.92;;;11.40;72.40;;;;;;4974821;28;20038;-79
2021/03/27 03:19:12;;;;;;;5.55;2.88;;;11.40;72.40;;;;;;4962650;28;20022;-79
2021/03/27 03:21:52;;;;;;;4.93;3.15;;;11.30;72.40;;;;;;4953118;28;20030;-79
2021/03/27 03:24:35;;;;;;;3.55;2.83;;;11.30;72.40;;;;;;4971186;28;20026;-80
2021/03/27 03:27:22;;;;;;;3.85;2.63;;;11.30;72.30;;;;;;4960260;28;20030;-79
2021/03/27 03:30:21;;;;;;;4.18;3.20;;;11.30;72.40;;;;;;4952619;28;20027;-79
2021/03/27 03:32:56;;;;;;;4.38;3.20;;;11.20;72.40;;;;;;4942595;28;20030;-80
2021/03/27 03:35:47;;;;;;;3.75;3.10;;;11.20;72.30;;;;;;4948509;28;20030;-79
2021/03/27 03:38:26;;;;;;;3.67;2.80;;;11.20;72.40;;;;;;4961885;28;20062;-79
2021/03/27 03:41:37;;;;;;;3.55;2.80;;;11.20;72.40;;;;;;4976072;28;20027;-79
2021/03/27 03:44:19;;;;;;;3.95;2.70;;;11.10;72.50;;;;;;4936444;28;20491;-79
2021/03/27 03:47:06;;;;;;;3.30;2.70;;;11.10;72.30;;;;;;4945410;28;20408;-79
2021/03/27 03:49:51;;;;;;;5.95;3.10;;;11.10;72.50;;;;;;4966804;28;20125;-79
2021/03/27 03:52:19;;;;;;;;;;;11.10;72.40;;;;;;4929490;28;20038;-80
2021/03/27 03:54:58;;;;;;;3.85;2.90;;;11.00;72.40;;;;;;4962383;28;19913;-79
2021/03/27 03:57:30;;;;;;;3.55;2.70;;;11.00;72.30;;;;;;4946938;28;20039;-80
2021/03/27 04:00:21;;;;;;;4.78;3.15;;;11.00;72.40;;;;;;4961204;28;20049;-80
2021/03/27 04:03:14;;;;;;;3.92;2.97;;;11.00;72.50;;;;;;4947291;28;20046;-79
2021/03/27 04:05:55;;;;;;;4.05;3.10;;;10.90;72.60;;;;;;4958464;28;20026;-79
2021/03/27 04:08:21;;;;;;;4.68;3.28;;;10.90;72.50;;;;;;4958508;28;20035;-79
2021/03/27 04:10:53;;;;;;;5.18;3.53;;;10.90;72.50;;;;;;4959315;28;20038;-79
2021/03/27 04:13:41;;;;;;;4.55;3.22;;;10.90;72.50;;;;;;4963584;28;20030;-79
2021/03/27 04:16:18;;;;;;;4.35;3.28;;;10.90;72.70;;;;;;4956596;28;20576;-79
2021/03/27 04:19:09;;;;;;;4.88;3.45;;;10.90;72.60;;;;;;4976743;28;20379;-79
2021/03/27 04:21:46;;;;;;;3.88;2.97;;;10.90;72.60;;;;;;4962697;28;20034;-80
2021/03/27 04:24:23;;;;;;;4.43;3.40;;;10.80;72.50;;;;;;4946392;28;20390;-79
2021/03/27 04:26:54;;;;;;;4.55;3.20;;;10.80;72.60;;;;;;4973716;28;20471;-79
2021/03/27 04:29:42;;;;;;;5.35;3.30;;;10.80;72.60;;;;;;4957252;28;20039;-79
2021/03/27 04:32:26;;;;;;;4.57;3.30;;;10.80;72.70;;;;;;4974855;28;20076;-80
2021/03/27 04:34:55;;;;;;;4.75;3.40;;;10.80;72.60;;;;;;4978871;28;20058;-79
2021/03/27 04:37:41;;;;;;;4.60;3.22;;;10.80;72.60;;;;;;4952324;28;20030;-79
2021/03/27 04:40:22;;;;;;;4.35;3.28;;;10.70;72.70;;;;;;4944317;28;20073;-79
2021/03/27 04:42:58;;;;;;;4.43;3.30;;;10.70;72.60;;;;;;4964201;28;20077;-80
2021/03/27 04:45:27;;;;;;;4.57;3.28;;;10.70;72.60;;;;;;4975759;28;20045;-79
2021/03/27 04:48:12;;;;;;;4.25;3.00;;;10.70;72.60;;;;;;4968251;28;20045;-80
2021/03/27 04:50:52;;;;;;;4.38;3.13;;;10.70;72.70;;;;;;4966183;28;20034;-80
2021/03/27 04:53:41;;;;;;;4.93;3.00;;;10.60;72.60;;;;;;4968428;28;20468;-80
2021/03/27 04:56:29;;;;;;;3.85;2.97;;;10.60;72.70;;;;;;4973875;28;20053;-79
2021/03/27 04:59:04;;;;;;;4.22;2.92;;;10.60;72.70;;;;;;4954698;28;20030;-79
2021/03/27 05:01:58;;;;;;;4.38;3.20;;;10.60;72.60;;;;;;4957520;28;20026;-80
2021/03/27 05:05:01;;;;;;;5.15;3.00;;;10.60;72.70;;;;;;4962374;28;20034;-79
2021/03/27 05:07:34;;;;;;;4.10;2.70;;;10.60;72.80;;;;;;4945440;28;20113;-79
2021/03/27 05:10:06;;;;;;;5.05;3.20;;;10.50;72.60;;;;;;4957608;28;20030;-79
2021/03/27 05:12:41;;;;;;;5.00;3.33;;;10.50;72.70;;;;;;4978517;28;20113;-79
2021/03/27 05:15:23;;;;;;;4.75;3.30;;;10.50;72.70;;;;;;4966897;28;20031;-79
2021/03/27 05:18:01;;;;;;;4.20;2.55;;;10.50;72.70;;;;;;4964283;28;20049;-79
2021/03/27 05:20:39;;;;;;;3.72;2.40;;;10.50;72.70;;;;;;4968816;28;20022;-79
2021/03/27 05:23:14;;;;;;;3.92;2.67;;;10.50;72.80;;;;;;4949838;28;20391;-79
2021/03/27 05:26:07;;;;;;;4.47;2.83;;;10.50;72.70;;;;;;4960799;28;20035;-79
2021/03/27 05:28:33;;;;;;;5.40;2.97;;;10.50;72.90;;;;;;4956958;28;20027;-79
2021/03/27 05:31:11;;;;;;;5.40;2.90;;;10.50;72.70;;;;;;4952398;28;20497;-79
2021/03/27 05:33:56;;;;;;;4.00;2.63;;;10.40;72.80;;;;;;4944275;28;20030;-79
2021/03/27 05:36:40;;;;;;;3.53;2.40;;;10.40;72.80;;;;;;4957794;28;20039;-79
2021/03/27 05:39:31;;;;;;;3.88;2.30;;;10.40;72.80;;;;;;4940258;28;20035;-80
2021/03/27 05:42:35;;;;;;;2.63;2.00;;;10.40;72.80;;;;;;4973129;28;20026;-79
2021/03/27 05:45:19;;;;;;;2.65;1.95;;;10.40;72.90;;;;;;4957830;28;20369;-79
2021/03/27 05:48:16;;;;;;;2.67;2.10;;;10.40;72.90;;;;;;4972251;28;20042;-79
2021/03/27 05:50:59;;;;;;;3.00;1.92;;;10.30;72.90;;;;;;4964818;28;20022;-79
2021/03/27 05:53:59;;;;;;;2.78;2.10;;;10.40;72.80;;;;;;4985039;28;20035;-79
2021/03/27 05:56:52;;;;;;;2.75;1.90;;;10.30;73.00;;;;;;4956789;28;20444;-79
2021/03/27 05:59:40;;;;;;;2.78;1.88;;;10.30;73.00;;;;;;4955423;28;20065;-79
2021/03/27 06:02:35;;;;;;;2.53;1.52;;;10.30;73.00;;;;;;4984812;28;20027;-79
2021/03/27 06:05:29;;;;;;;2.43;1.60;;;10.30;72.90;;;;;;4927686;28;20479;-79
2021/03/27 06:08:25;;;;;;;2.78;1.90;;;10.20;72.90;;;;;;4940635;28;20030;-79
2021/03/27 06:10:59;;;;;;;2.72;1.80;;;10.30;73.00;;;;;;4953939;28;20049;-79
2021/03/27 06:13:44;;;;;;;2.92;1.70;;;10.20;72.90;;;;;;4973804;28;20023;-82
2021/03/27 06:16:10;;;;;;;;;;;10.30;73.10;;;;;;4962583;28;20043;-86
2021/03/27 06:19:12;;;;;;;2.40;1.70;;;10.20;72.90;;;;;;4971788;28;19906;-82
2021/03/27 06:22:22;;;;;;;2.88;1.50;;;10.20;72.90;;;;;;4949798;28;20037;-81
2021/03/27 06:25:09;;;;;;;2.65;1.60;;;10.20;73.10;;;;;;4879848;29;20104;-81
2021/03/27 06:28:10;;;;;;;3.15;1.40;;;10.10;72.90;;;;;;4956342;28;20387;-78
2021/03/27 06:30:57;;;;;;;4.20;1.85;;;10.10;73.10;;;;;;4959903;28;20077;-81
2021/03/27 06:34:00;;;;;;;3.25;1.50;;;10.10;73.00;;;;;;4955181;28;20487;-80
2021/03/27 06:36:47;;;;;;;2.85;1.60;;;10.10;73.10;;;;;;4959167;28;20039;-79
2021/03/27 06:39:28;;;;;;;2.33;1.50;;;10.10;73.00;;;;;;4959400;28;20490;-79
2021/03/27 06:42:08;;;;;;;2.40;1.60;;;10.10;73.00;;;;;;4976782;28;20030;-79
2021/03/27 06:45:12;;;;;;;2.47;1.45;;;10.00;73.00;;;;;;4958747;28;20027;-80
2021/03/27 06:47:58;;;;;;;2.20;1.48;;;10.00;73.10;;;;;;4964294;28;20408;-80
2021/03/27 06:50:33;;;;;;;2.25;1.30;;;10.00;73.00;;;;;;4952980;29;20500;-81
2021/03/27 06:53:16;;;;;;;2.28;1.40;;;10.00;73.10;;;;;;4955777;29;20034;-81
2021/03/27 06:56:14;;;;;;;1.95;1.33;;;10.00;73.20;;;;;;4957810;28;20070;-81
2021/03/27 06:59:22;;;;;;;3.00;1.50;;;10.00;73.10;;;;;;4954774;29;20400;-80
2021/03/27 07:02:10;;;;;;;2.08;1.48;;;10.00;73.10;;;;;;4937174;29;20070;-81
2021/03/27 07:04:53;;;;;;;2.60;1.55;;;9.90;73.10;;;;;;4938664;29;20050;-81
2021/03/27 07:07:43;;;;;;;2.30;1.55;;;9.90;73.10;;;;;;4954082;29;20068;-81
2021/03/27 07:10:21;;;;;;;1.95;1.50;;;9.90;73.20;;;;;;4954536;29;20031;-81
2021/03/27 07:13:05;;;;;;;2.72;1.40;;;9.90;73.10;;;;;;4938537;29;20090;-81
2021/03/27 07:15:57;;;;;;;1.42;1.23;;;9.90;73.00;;;;;;4952821;29;20388;-80
2021/03/27 07:18:49;;;;;;;1.80;1.00;;;9.90;73.20;;;;;;4938423;29;20384;-81
2021/03/27 07:21:30;;;;;;;2.78;1.60;;;9.90;73.10;;;;;;4952322;29;20038;-79
2021/03/27 07:24:25;;;;;;;1.85;1.25;;;9.80;73.10;;;;;;4970089;28;20468;-81
2021/03/27 07:27:29;;;;;;;2.13;1.48;;;9.80;73.20;;;;;;4969540;28;20395;-80
2021/03/27 07:30:28;;;;;;;2.60;1.45;;;9.70;73.10;;;;;;4919742;28;20031;-80
2021/03/27 07:32:57;;;;;;;1.90;1.20;;;9.70;73.10;;;;;;4963726;28;20773;-81
2021/03/27 07:35:37;;;;;;;1.70;1.52;;;9.70;73.00;;;;;;4950427;28;20047;-82
2021/03/27 07:38:27;;;;;;;2.38;1.50;;;9.70;73.10;;;;;;4963043;28;20110;-81
2021/03/27 07:41:02;;;;;;;1.88;1.35;;;9.70;73.30;;;;;;4961485;28;20035;-81
2021/03/27 07:43:36;;;;;;;1.30;1.20;;;9.70;73.10;;;;;;4955240;28;20118;-81
2021/03/27 07:49:08;;;;;;;1.77;1.40;;;9.70;73.10;;;;;;5104865;27;20379;-82
2021/03/27 07:51:52;;;;;;;1.75;1.20;;;9.60;73.20;;;;;;5105409;28;20028;-81
2021/03/27 07:54:57;;;;;;;2.83;1.40;;;9.60;73.20;;;;;;5105473;28;20433;-80
2021/03/27 07:57:37;;;;;;;2.65;1.60;;;9.60;73.30;;;;;;5073054;28;20055;-83
2021/03/27 08:00:39;;;;;;;1.20;1.15;;;9.60;73.20;;;;;;5094684;28;20059;-79
2021/03/27 08:03:46;;;;;;;2.70;1.50;;;9.60;73.40;;;;;;5089501;28;20103;-80
2021/03/27 08:06:35;;;;;;;2.47;1.35;;;9.60;73.40;;;;;;5082721;28;20040;-79
2021/03/27 08:09:28;;;;;;;1.95;1.13;;;9.60;73.40;;;;;;5093355;28;20067;-79
2021/03/27 08:12:01;;;;;;;2.03;1.48;;;9.60;73.40;;;;;;5075113;28;20035;-80
2021/03/27 08:14:49;;;;;;;1.83;1.17;;;9.60;73.30;;;;;;5119233;28;20055;-78
2021/03/27 08:17:42;;;;;;;1.75;1.30;;;9.60;73.50;;;;;;5087692;28;20032;-78
2021/03/27 08:20:38;;;;;;;2.20;1.27;;;9.70;73.60;;;;;;5103077;28;20388;-78
2021/03/27 08:23:29;;;;;;;2.78;1.42;;;9.60;73.50;;;;;;5108140;28;20055;-79
2021/03/27 08:26:25;;;;;;;2.72;1.30;;;9.60;73.50;;;;;;5103469;28;20028;-78
2021/03/27 08:29:29;;;;;;;1.63;1.10;;;9.70;73.60;;;;;;5110056;28;20067;-78
2021/03/27 08:32:37;;;;;;;2.17;1.35;;;9.70;73.60;;;;;;5100373;27;20040;-78
2021/03/27 08:35:42;;;;;;;2.25;1.40;;;9.70;73.60;;;;;;5082733;28;20055;-78
2021/03/27 08:38:42;;;;;;;2.72;1.40;;;9.70;73.60;;;;;;5107944;28;20031;-78
2021/03/27 08:41:14;;;;;;;4.32;1.63;;;9.70;73.60;;;;;;5108233;28;20027;-79
2021/03/27 08:43:57;;;;;;;1.50;1.10;;;9.70;73.50;;;;;;5087244;28;20033;-79
2021/03/27 08:46:44;;;;;;;1.83;1.30;;;9.70;73.50;;;;;;5092926;28;20028;-79
2021/03/27 08:49:19;;;;;;;3.40;1.50;;;9.70;73.60;;;;;;5089230;28;20043;-79
2021/03/27 08:52:03;;;;;;;1.50;1.40;;;9.70;73.50;;;;;;5102002;28;20070;-81
2021/03/27 08:55:03;;;;;;;1.52;1.20;;;9.70;73.50;;;;;;5099852;28;20031;-88
2021/03/27 08:57:38;;;;;;;2.40;1.50;;;9.70;73.60;;;;;;5096560;28;20491;-80
2021/03/27 09:00:23;;;;;;;;;;;9.70;73.40;;;;;;5100178;28;20028;-79
2021/03/27 09:03:14;;;;;;;2.67;1.30;;;9.70;73.40;;;;;;5086706;28;19908;-81
2021/03/27 09:05:56;;;;;;;1.65;1.10;;;9.70;73.40;;;;;;5091466;28;20069;-79
2021/03/27 09:08:34;;;;;;;1.67;1.05;;;9.70;73.50;;;;;;5086545;28;20080;-77
2021/03/27 09:11:37;;;;;;;1.67;1.10;;;9.70;73.50;;;;;;5080098;28;20472;-79
2021/03/27 09:14:14;;;;;;;2.20;1.48;;;9.70;73.60;;;;;;5074640;28;20020;-79
2021/03/27 09:17:11;;;;;;;2.38;1.35;;;9.70;73.50;;;;;;5076281;28;20059;-79
2021/03/27 09:19:52;;;;;;;2.25;1.52;;;9.70;73.60;;;;;;5090289;28;20031;-84
2021/03/27 09:22:26;;;;;;;1.90;1.30;;;9.70;73.50;;;;;;5093264;28;20024;-79
2021/03/27 09:25:20;;;;;;;2.00;1.40;;;9.70;73.60;;;;;;5092669;28;20028;-82
2021/03/27 09:28:24;;;;;;;1.83;1.15;;;9.80;73.70;;;;;;5093208;28;20024;-80
2021/03/27 09:30:56;;;;;;;1.98;1.33;;;9.80;73.70;;;;;;5062367;28;20485;-80
2021/03/27 09:33:27;;;;;;;2.20;1.40;;;9.80;73.60;;;;;;5094640;28;20595;-80
2021/03/27 09:36:02;;;;;;;2.72;1.25;;;9.90;73.60;;;;;;5126555;27;20032;-80
2021/03/27 09:39:01;;;;;;;2.35;1.38;;;9.90;73.70;;;;;;5093958;28;20023;-80
2021/03/27 09:41:52;;;;;;;2.88;1.10;;;9.90;73.70;;;;;;5092637;28;20016;-79
2021/03/27 09:44:58;;;;;;;1.27;1.17;;;9.90;73.70;;;;;;5092843;28;20441;-80
2021/03/27 09:47:49;;;;;;;2.08;1.50;;;10.00;73.80;;;;;;5066406;28;20047;-82
2021/03/27 09:50:32;;;;;;;3.47;1.30;;;10.00;73.70;;;;;;5079733;28;20104;-82
2021/03/27 09:53:07;;;;;;;3.22;1.30;;;10.00;73.60;;;;;;5081777;28;20039;-82
2021/03/27 09:55:59;;;;;;;2.97;1.38;;;10.10;73.60;;;;;;5093249;28;20032;-82
2021/03/27 09:59:03;;;;;;;3.38;1.30;;;10.10;73.60;;;;;;5104565;28;20587;-82
2021/03/27 10:01:44;;;;;;;2.17;1.38;;;10.20;73.60;;;;;;5092918;28;20443;-80
2021/03/27 10:04:30;;;;;;;2.10;1.35;;;10.20;73.50;;;;;;5091947;28;20032;-81
2021/03/27 10:07:19;;;;;;;2.55;1.83;;;10.20;73.50;;;;;;5092830;28;20093;-82
2021/03/27 10:10:06;;;;;;;3.40;1.42;;;10.30;73.50;;;;;;5079425;28;20039;-83
2021/03/27 10:13:10;;;;;;;2.33;1.40;;;10.30;73.40;;;;;;5072279;28;20035;-82
2021/03/27 10:15:47;;;;;;;2.80;1.60;;;10.40;73.40;;;;;;5092504;28;20034;-83
2021/03/27 10:18:32;;;;;;;3.00;1.50;;;10.40;73.20;;;;;;5078452;28;20093;-82
2021/03/27 10:21:26;;;;;;;4.40;1.70;;;10.50;73.20;;;;;;5092499;28;20028;-83
2021/03/27 10:24:39;;;;;;;3.63;1.67;;;10.50;73.10;;;;;;5085270;28;20107;-82
2021/03/27 10:27:33;;;;;;;2.97;1.50;;;10.60;73.10;;;;;;5010204;28;20075;-82
2021/03/27 10:30:20;;;;;;;1.80;1.30;;;10.60;72.80;;;;;;5091096;28;20028;-81
2021/03/27 10:33:23;;;;;;;3.15;1.20;;;10.70;72.80;;;;;;5062405;28;20049;-82
2021/03/27 10:35:52;;;;;;;3.33;1.48;;;10.80;72.60;;;;;;5068641;28;20116;-82
2021/03/27 10:38:45;;;;;;;2.45;1.27;;;10.80;72.40;;;;;;5061661;28;20024;-82
2021/03/27 10:41:38;;;;;;;2.25;1.20;;;10.90;72.50;;;;;;5090167;28;20035;-81
2021/03/27 10:44:48;;;;;;;1.42;1.20;;;10.90;72.30;;;;;;5083554;28;20028;-82
2021/03/27 10:47:19;;;;;;;3.08;1.50;;;11.00;72.20;;;;;;5081266;28;20051;-82
2021/03/27 10:50:11;;;;;;;3.15;1.20;;;11.10;71.90;;;;;;5091027;28;20381;-81
2021/03/27 10:52:51;;;;;;;2.63;1.30;;;11.10;71.90;;;;;;5074800;28;20024;-80
2021/03/27 10:55:29;;;;;;;1.65;1.17;;;11.20;71.70;;;;;;5091874;28;20024;-82
2021/03/27 10:58:32;;;;;;;1.70;1.30;;;11.20;71.60;;;;;;5074741;28;20093;-81
2021/03/27 11:01:17;;;;;;;1.90;1.10;;;11.30;71.60;;;;;;5090910;28;20119;-83
2021/03/27 11:04:20;;;;;;;1.50;1.00;;;11.40;71.40;;;;;;5090387;28;20077;-82
2021/03/27 11:07:24;;;;;;;2.40;1.20;;;11.40;71.30;;;;;;5073676;28;20408;-82
2021/03/27 11:10:17;;;;;;;1.35;1.10;;;11.50;71.20;;;;;;5082811;28;20032;-83
2021/03/27 11:13:28;;;;;;;1.73;1.10;;;11.60;71.10;;;;;;5091406;28;20020;-86
2021/03/27 11:16:19;;;;;;;2.97;1.20;;;11.70;71.70;;;;;;5091639;28;20020;-84
2021/03/27 11:18:50;;;;;;;3.00;1.20;;;11.70;70.90;;;;;;5092114;28;20032;-85
2021/03/27 11:21:31;;;;;;;2.90;1.30;;;11.80;70.80;;;;;;5074422;28;20369;-80
2021/03/27 11:23:57;;;;;;;1.65;1.20;;;11.90;70.70;;;;;;5078543;28;20020;-80
2021/03/27 11:26:32;;;;;;;2.08;1.25;;;12.00;70.60;;;;;;5073314;28;20476;-81
2021/03/27 11:29:05;;;;;;;3.50;1.17;;;12.00;70.50;;;;;;5084161;28;20028;-86
2021/03/27 11:31:51;;;;;;;2.97;1.38;;;12.20;70.40;;;;;;5089856;28;20023;-82
2021/03/27 11:34:38;;;;;;;3.47;1.33;;;12.20;70.50;;;;;;5090930;28;20039;-82
2021/03/27 11:37:22;;;;;;;1.60;1.10;;;12.30;70.30;;;;;;5072583;28;20376;-82
2021/03/27 11:40:14;;;;;;;1.58;1.00;;;12.40;70.20;;;;;;5072736;28;20024;-82
2021/03/27 11:42:56;;;;;;;2.88;1.35;;;12.50;70.20;;;;;;5065813;28;20378;-85
2021/03/27 11:45:31;;;;;;;1.58;1.00;;;12.50;70.10;;;;;;5091593;28;20024;-89
2021/03/27 11:48:03;;;;;;;2.72;1.30;;;12.60;70.00;;;;;;5090064;28;20056;-81
2021/03/27 11:50:59;;;;;;;1.95;1.20;;;12.70;70.00;;;;;;5082722;28;20051;-80
2021/03/27 11:54:04;;;;;;;6.25;1.50;;;12.70;70.00;;;;;;5087365;28;20055;-83
2021/03/27 11:56:36;;;;;;;1.85;1.13;;;12.80;70.00;;;;;;5032666;28;20507;-81
2021/03/27 12:02:18;;;;;;;3.88;1.38;;;12.90;69.90;;;;;;5090960;28;20495;-78
2021/03/27 12:04:57;;;;;;;4.43;1.30;;;12.90;69.90;;;;;;5091950;28;20028;-77
2021/03/27 12:07:42;;;;;;;3.83;1.30;;;13.00;69.90;;;;;;5075427;28;20353;-80
2021/03/27 12:10:28;;;;;;;2.17;1.20;;;13.00;70.00;;;;;;5092357;28;20032;-79
2021/03/27 12:13:25;;;;;;;2.42;1.30;;;13.10;69.80;;;;;;5086720;28;20024;-79
2021/03/27 12:16:17;;;;;;;2.03;1.20;;;13.10;69.80;;;;;;5077367;28;20020;-78
2021/03/27 12:18:53;;;;;;;2.20;1.23;;;13.10;69.80;;;;;;5092303;28;20422;-78
2021/03/27 12:21:32;;;;;;;1.30;1.20;;;13.10;69.70;;;;;;5077358;28;20127;-78
2021/03/27 12:24:09;;;;;;;1.80;1.20;;;13.10;69.70;;;;;;5084489;28;20035;-77
2021/03/27 12:26:57;;;;;;;4.20;1.75;;;13.20;69.70;;;;;;5077075;28;20032;-82
2021/03/27 12:29:36;;;;;;;1.58;1.30;;;13.20;69.70;;;;;;5073686;28;20036;-82
2021/03/27 12:32:41;;;;;;;1.52;1.23;;;13.10;69.60;;;;;;5080936;28;20028;-84
2021/03/27 12:35:14;;;;;;;2.25;1.33;;;13.20;69.70;;;;;;5085365;28;20461;-83
2021/03/27 12:37:55;;;;;;;1.50;1.10;;;13.10;69.50;;;;;;5090317;28;20111;-84
2021/03/27 12:40:27;;;;;;;3.58;1.42;;;13.20;69.80;;;;;;5087460;28;20076;-83
2021/03/27 12:43:13;;;;;;;3.90;1.60;;;13.20;69.70;;;;;;5077674;28;20027;-82
2021/03/27 12:45:45;;;;;;;4.43;1.60;;;13.10;69.80;;;;;;5094881;28;20024;-82
2021/03/27 12:48:25;;;;;;;3.67;1.30;;;13.10;69.70;;;;;;5077450;28;20507;-83
2021/03/27 12:51:09;;;;;;;2.22;1.20;;;13.20;69.80;;;;;;5095468;28;20028;-82
2021/03/27 12:53:38;;;;;;;2.22;1.30;;;13.10;69.80;;;;;;5095664;28;20508;-81
2021/03/27 12:56:25;;;;;;;3.03;1.40;;;13.20;69.80;;;;;;5077294;28;20570;-84
2021/03/27 12:59:18;;;;;;;3.65;1.27;;;13.20;69.90;;;;;;5077823;28;20052;-83
2021/03/27 13:02:19;;;;;;;2.85;1.40;;;13.20;69.90;;;;;;5077764;28;20114;-83
2021/03/27 13:05:02;;;;;;;2.72;1.33;;;13.20;69.90;;;;;;5074186;28;20052;-86
2021/03/27 13:07:39;;;;;;;2.03;1.23;;;13.10;69.70;;;;;;5086457;28;20056;-84
2021/03/27 13:10:29;;;;;;;4.43;1.70;;;13.10;69.70;;;;;;5082749;28;20477;-84
2021/03/27 13:13:21;;;;;;;3.63;1.63;;;13.10;69.70;;;;;;5075458;28;20038;-84
2021/03/27 13:15:49;;;;;;;3.28;1.63;;;13.10;69.70;;;;;;5088622;28;20037;-82
2021/03/27 13:18:20;;;;;;;2.78;1.45;;;13.10;69.70;;;;;;5082886;28;20050;-84
2021/03/27 13:21:07;;;;;;;3.35;1.38;;;13.10;69.80;;;;;;5088426;28;20465;-84
2021/03/27 13:24:02;;;;;;;2.25;1.50;;;13.10;69.90;;;;;;5077488;28;20024;-83
2021/03/27 13:26:30;;;;;;;4.65;1.45;;;13.10;69.90;;;;;;5094471;28;20020;-85
2021/03/27 13:29:37;;;;;;;2.85;1.40;;;13.10;69.80;;;;;;5060593;28;20036;-84
2021/03/27 13:32:17;;;;;;;3.28;1.30;;;13.00;69.90;;;;;;5093737;28;20430;-84
2021/03/27 13:34:43;;;;;;;1.92;1.20;;;13.00;69.80;;;;;;5089222;28;20029;-86
2021/03/27 13:37:21;;;;;;;3.33;1.20;;;13.10;69.90;;;;;;5085398;28;20109;-84
2021/03/27 13:39:58;;;;;;;3.78;1.60;;;13.10;70.60;;;;;;5093522;28;20490;-83
2021/03/27 13:42:30;;;;;;;3.15;1.40;;;13.00;69.90;;;;;;5094253;28;20024;-81
2021/03/27 13:45:25;;;;;;;3.15;1.50;;;13.00;69.80;;;;;;5092680;28;20024;-83
2021/03/27 13:48:07;;;;;;;1.70;1.30;;;13.00;69.90;;;;;;5076035;28;20047;-83
2021/03/27 13:50:52;;;;;;;3.20;1.40;;;13.00;69.80;;;;;;5075805;28;20032;-78
2021/03/27 13:53:46;;;;;;;2.75;1.55;;;13.00;69.80;;;;;;5075460;28;20024;-81
2021/03/27 13:56:38;;;;;;;2.88;1.27;;;13.00;69.80;;;;;;5073124;28;20073;-79
2021/03/27 13:59:22;;;;;;;3.08;1.30;;;13.00;69.70;;;;;;5080884;28;20418;-79
2021/03/27 14:02:06;;;;;;;3.28;1.58;;;13.00;69.80;;;;;;5093458;28;20499;-79
2021/03/27 14:04:39;;;;;;;4.03;1.40;;;13.00;69.70;;;;;;5092443;28;20031;-80
2021/03/27 14:07:29;;;;;;;2.38;1.60;;;13.00;69.70;;;;;;5075248;28;20024;-80
2021/03/27 14:10:32;;;;;;;2.72;1.33;;;13.00;69.80;;;;;;5091247;28;20032;-80
2021/03/27 14:13:16;;;;;;;2.22;1.45;;;13.00;69.70;;;;;;5079161;28;20512;-78
2021/03/27 14:15:48;;;;;;;3.85;1.50;;;13.00;69.70;;;;;;5074971;28;20485;-78
2021/03/27 14:18:24;;;;;;;3.47;1.20;;;13.00;69.60;;;;;;5092884;28;20499;-80
2021/03/27 14:21:29;;;;;;;4.45;1.70;;;13.10;69.70;;;;;;5091623;28;20016;-78
2021/03/27 14:24:20;;;;;;;3.80;1.40;;;13.00;69.70;;;;;;5025270;28;20043;-79
2021/03/27 14:27:13;;;;;;;3.90;1.55;;;13.00;69.50;;;;;;5089178;28;20032;-81
2021/03/27 14:29:59;;;;;;;3.13;1.38;;;13.10;69.50;;;;;;5093337;28;20058;-80